Trim Flying Club goes to the Aran Islands

Learn to fly at Trim Flying Club

Rainfall Radar Now

Atlantic Charts Pressure - Today

Atlantic Charts Rainfall - Today

 
 

Atlantic Charts Pressure - Tomorrow

Sunrise Sunset

Click for Dublin, Ireland Forecast

Aviation WX Dublin EIDW

[source: ADDS]
METAR
EIDW 021830Z 10007KT 9999 FEW017 SCT030 13/11 Q1023 NOSIG =
TAF
TAF EIDW 021700Z 0218/0318 11007KT 9999 FEW017 SCT030 BECMG 0221/0223 VRB03KT TEMPO 0302/0308 3000 BR BKN006 PROB30 TEMPO 0304/0307 0800 FG BKN004 BECMG 0309/0311 10007KT =